Madison, California
Current Conditions -  °F | °C
As of 6:55 AM on Friday 19 Dec 2014 (Local Time) from KEDU Reporting Station
Overcast Overcast  
Wind Chill: 52°   Ceiling: 2700
Heat Index: 52°   Visibility: 2.5mi
Dew Point: 48°   Wind: 12mph
Humidity: 88%   Direction: 150°SSE
Pressure: 30.09"   Gusts: NA
Location:  38.68°N, 121.97°W
Report Text: KEDU 191455Z AUTO 15010KT 2 1/2SM OVC027 11/09 A3009 RMK AO1
Loading
Personal Weather Stations






























Interactive Weather Map New forecast layout! Learn more

10-Day Weather Forecast

Advertisements
Track Severe Weather on mobile